Fair Oaks, Arkansas
Current Conditions -  °F | °C
As of 4:56 PM on Wednesday 17 Dec 2014 (Local Time) from KM19 Reporting Station
Overcast Overcast  
Wind Chill: 33°   Ceiling: 10000
Heat Index: 38°   Visibility: 10mi
Dew Point: 31°   Wind: 6mph
Humidity: 76%   Direction: 30°NNE
Pressure: 30.3"   Gusts: NA
Location:  35.2139°N, 91.1509°W
Report Text: KM19 172256Z AUTO 03005KT 10SM OVC100 03/M01 A3030 RMK AO2 T00331005 RAE52 P0000 SLP263
Loading
Personal Weather Stations






























Interactive Weather Map New forecast layout! Learn more

10-Day Weather Forecast

Advertisements
Track Severe Weather on mobile